sensor_id;sensor_type;location;lat;lon;timestamp;P1;durP1;ratioP1;P2;durP2;ratioP2
46941;SDS011;32676;52.630;4.896;2022-11-15T00:01:48;32.47;;;19.27;;
46941;SDS011;32676;52.630;4.896;2022-11-15T00:04:16;35.85;;;20.67;;
46941;SDS011;32676;52.630;4.896;2022-11-15T00:06:42;36.60;;;19.92;;
46941;SDS011;32676;52.630;4.896;2022-11-15T00:09:09;41.22;;;21.45;;
46941;SDS011;32676;52.630;4.896;2022-11-15T00:11:35;37.30;;;20.05;;
46941;SDS011;32676;52.630;4.896;2022-11-15T00:14:02;33.50;;;19.27;;
46941;SDS011;32676;52.630;4.896;2022-11-15T00:16:28;38.42;;;21.40;;
46941;SDS011;32676;52.630;4.896;2022-11-15T00:18:54;30.98;;;18.45;;
46941;SDS011;32676;52.630;4.896;2022-11-15T00:21:23;39.33;;;19.23;;
46941;SDS011;32676;52.630;4.896;2022-11-15T00:23:50;32.97;;;18.73;;
46941;SDS011;32676;52.630;4.896;2022-11-15T00:26:16;36.50;;;21.02;;
46941;SDS011;32676;52.630;4.896;2022-11-15T00:28:43;41.53;;;19.70;;
46941;SDS011;32676;52.630;4.896;2022-11-15T00:31:11;39.00;;;19.85;;
46941;SDS011;32676;52.630;4.896;2022-11-15T00:33:38;42.03;;;20.95;;
46941;SDS011;32676;52.630;4.896;2022-11-15T00:36:07;34.97;;;19.15;;
46941;SDS011;32676;52.630;4.896;2022-11-15T00:38:37;37.92;;;21.05;;
46941;SDS011;32676;52.630;4.896;2022-11-15T00:41:05;33.95;;;17.77;;
46941;SDS011;32676;52.630;4.896;2022-11-15T00:43:33;38.75;;;19.38;;
46941;SDS011;32676;52.630;4.896;2022-11-15T00:45:59;37.70;;;20.13;;
46941;SDS011;32676;52.630;4.896;2022-11-15T00:48:27;38.75;;;18.42;;
46941;SDS011;32676;52.630;4.896;2022-11-15T00:50:54;43.58;;;21.50;;
46941;SDS011;32676;52.630;4.896;2022-11-15T00:53:20;39.33;;;20.42;;
46941;SDS011;32676;52.630;4.896;2022-11-15T00:55:48;43.22;;;21.88;;
46941;SDS011;32676;52.630;4.896;2022-11-15T00:58:14;44.28;;;20.63;;
46941;SDS011;32676;52.630;4.896;2022-11-15T01:00:41;42.95;;;21.23;;
46941;SDS011;32676;52.630;4.896;2022-11-15T01:03:07;53.70;;;24.23;;
46941;SDS011;32676;52.630;4.896;2022-11-15T01:05:33;65.28;;;25.42;;
46941;SDS011;32676;52.630;4.896;2022-11-15T01:08:02;52.78;;;25.25;;
46941;SDS011;32676;52.630;4.896;2022-11-15T01:10:29;55.78;;;23.80;;
46941;SDS011;32676;52.630;4.896;2022-11-15T01:12:57;60.10;;;25.10;;
46941;SDS011;32676;52.630;4.896;2022-11-15T01:15:23;58.83;;;26.73;;
46941;SDS011;32676;52.630;4.896;2022-11-15T01:17:50;66.25;;;24.38;;
46941;SDS011;32676;52.630;4.896;2022-11-15T01:20:16;58.40;;;25.95;;
46941;SDS011;32676;52.630;4.896;2022-11-15T01:22:43;72.22;;;29.17;;
46941;SDS011;32676;52.630;4.896;2022-11-15T01:25:10;64.57;;;27.73;;
46941;SDS011;32676;52.630;4.896;2022-11-15T01:27:36;76.38;;;29.25;;
46941;SDS011;32676;52.630;4.896;2022-11-15T01:30:05;61.70;;;28.15;;
46941;SDS011;32676;52.630;4.896;2022-11-15T01:32:33;62.67;;;27.15;;
46941;SDS011;32676;52.630;4.896;2022-11-15T01:34:59;71.18;;;30.48;;
46941;SDS011;32676;52.630;4.896;2022-11-15T01:37:26;69.55;;;28.70;;
46941;SDS011;32676;52.630;4.896;2022-11-15T01:39:52;69.55;;;28.90;;
46941;SDS011;32676;52.630;4.896;2022-11-15T01:42:19;70.28;;;28.77;;
46941;SDS011;32676;52.630;4.896;2022-11-15T01:44:46;70.35;;;28.30;;
46941;SDS011;32676;52.630;4.896;2022-11-15T01:47:16;68.93;;;28.27;;
46941;SDS011;32676;52.630;4.896;2022-11-15T01:49:49;67.32;;;29.05;;
46941;SDS011;32676;52.630;4.896;2022-11-15T01:52:22;69.93;;;27.17;;
46941;SDS011;32676;52.630;4.896;2022-11-15T01:54:53;73.10;;;29.08;;
46941;SDS011;32676;52.630;4.896;2022-11-15T01:57:22;72.75;;;29.17;;
46941;SDS011;32676;52.630;4.896;2022-11-15T01:59:49;83.68;;;34.30;;
46941;SDS011;32676;52.630;4.896;2022-11-15T02:02:16;82.63;;;30.20;;
46941;SDS011;32676;52.630;4.896;2022-11-15T02:04:44;68.82;;;27.45;;
46941;SDS011;32676;52.630;4.896;2022-11-15T02:07:13;75.75;;;29.10;;
46941;SDS011;32676;52.630;4.896;2022-11-15T02:09:43;79.38;;;30.33;;
46941;SDS011;32676;52.630;4.896;2022-11-15T02:12:10;67.90;;;26.65;;
46941;SDS011;32676;52.630;4.896;2022-11-15T02:14:40;65.63;;;26.52;;
46941;SDS011;32676;52.630;4.896;2022-11-15T02:17:14;90.78;;;30.13;;
46941;SDS011;32676;52.630;4.896;2022-11-15T02:23:04;69.65;;;27.13;;
46941;SDS011;32676;52.630;4.896;2022-11-15T02:25:56;58.53;;;25.35;;
46941;SDS011;32676;52.630;4.896;2022-11-15T02:31:17;73.07;;;26.02;;
46941;SDS011;32676;52.630;4.896;2022-11-15T02:33:53;64.07;;;25.75;;
46941;SDS011;32676;52.630;4.896;2022-11-15T02:36:34;73.70;;;28.17;;
46941;SDS011;32676;52.630;4.896;2022-11-15T02:39:07;68.45;;;26.08;;
46941;SDS011;32676;52.630;4.896;2022-11-15T02:41:40;69.35;;;28.40;;
46941;SDS011;32676;52.630;4.896;2022-11-15T02:44:12;60.47;;;24.75;;
46941;SDS011;32676;52.630;4.896;2022-11-15T02:46:44;73.85;;;26.50;;
46941;SDS011;32676;52.630;4.896;2022-11-15T02:49:32;73.55;;;27.63;;
46941;SDS011;32676;52.630;4.896;2022-11-15T02:52:00;77.10;;;27.70;;
46941;SDS011;32676;52.630;4.896;2022-11-15T02:54:28;67.47;;;24.85;;
46941;SDS011;32676;52.630;4.896;2022-11-15T02:56:58;62.60;;;26.15;;
46941;SDS011;32676;52.630;4.896;2022-11-15T02:59:43;74.80;;;26.98;;
46941;SDS011;32676;52.630;4.896;2022-11-15T03:02:36;63.97;;;26.45;;
46941;SDS011;32676;52.630;4.896;2022-11-15T03:05:10;70.43;;;25.95;;
46941;SDS011;32676;52.630;4.896;2022-11-15T03:07:45;77.00;;;26.35;;
46941;SDS011;32676;52.630;4.896;2022-11-15T03:10:20;76.60;;;27.95;;
46941;SDS011;32676;52.630;4.896;2022-11-15T03:12:51;73.55;;;30.15;;
46941;SDS011;32676;52.630;4.896;2022-11-15T03:15:23;67.50;;;24.92;;
46941;SDS011;32676;52.630;4.896;2022-11-15T03:17:57;76.55;;;25.45;;
46941;SDS011;32676;52.630;4.896;2022-11-15T03:20:27;74.00;;;26.88;;
46941;SDS011;32676;52.630;4.896;2022-11-15T03:22:55;63.70;;;28.85;;
46941;SDS011;32676;52.630;4.896;2022-11-15T03:25:26;70.50;;;27.08;;
46941;SDS011;32676;52.630;4.896;2022-11-15T03:27:57;74.03;;;27.08;;
46941;SDS011;32676;52.630;4.896;2022-11-15T03:30:27;74.22;;;26.38;;
46941;SDS011;32676;52.630;4.896;2022-11-15T03:32:58;80.63;;;24.92;;
46941;SDS011;32676;52.630;4.896;2022-11-15T03:35:29;70.60;;;27.38;;
46941;SDS011;32676;52.630;4.896;2022-11-15T03:38:00;86.10;;;28.63;;
46941;SDS011;32676;52.630;4.896;2022-11-15T03:40:35;76.15;;;28.48;;
46941;SDS011;32676;52.630;4.896;2022-11-15T03:43:06;81.60;;;31.80;;
46941;SDS011;32676;52.630;4.896;2022-11-15T03:45:41;89.95;;;30.65;;
46941;SDS011;32676;52.630;4.896;2022-11-15T03:48:14;89.93;;;31.08;;
46941;SDS011;32676;52.630;4.896;2022-11-15T03:50:44;95.60;;;29.88;;
46941;SDS011;32676;52.630;4.896;2022-11-15T03:53:12;100.00;;;32.05;;
46941;SDS011;32676;52.630;4.896;2022-11-15T03:55:39;101.65;;;34.90;;
46941;SDS011;32676;52.630;4.896;2022-11-15T03:58:05;73.10;;;29.80;;
46941;SDS011;32676;52.630;4.896;2022-11-15T04:00:32;81.85;;;30.70;;
46941;SDS011;32676;52.630;4.896;2022-11-15T04:02:58;115.53;;;32.47;;
46941;SDS011;32676;52.630;4.896;2022-11-15T04:05:26;96.85;;;34.20;;
46941;SDS011;32676;52.630;4.896;2022-11-15T04:07:53;117.40;;;36.75;;
46941;SDS011;32676;52.630;4.896;2022-11-15T04:10:19;97.38;;;33.70;;
46941;SDS011;32676;52.630;4.896;2022-11-15T04:12:46;102.60;;;35.15;;
46941;SDS011;32676;52.630;4.896;2022-11-15T04:15:13;94.65;;;33.03;;
46941;SDS011;32676;52.630;4.896;2022-11-15T04:17:42;89.15;;;33.20;;
46941;SDS011;32676;52.630;4.896;2022-11-15T04:20:11;84.00;;;34.15;;
46941;SDS011;32676;52.630;4.896;2022-11-15T04:22:58;100.32;;;34.85;;
46941;SDS011;32676;52.630;4.896;2022-11-15T04:25:43;74.78;;;30.00;;
46941;SDS011;32676;52.630;4.896;2022-11-15T04:28:11;103.53;;;36.38;;
46941;SDS011;32676;52.630;4.896;2022-11-15T04:30:38;94.85;;;36.65;;
46941;SDS011;32676;52.630;4.896;2022-11-15T04:33:04;101.40;;;33.95;;
46941;SDS011;32676;52.630;4.896;2022-11-15T04:35:31;106.28;;;37.20;;
46941;SDS011;32676;52.630;4.896;2022-11-15T04:37:59;103.57;;;39.55;;
46941;SDS011;32676;52.630;4.896;2022-11-15T04:40:26;120.53;;;38.25;;
46941;SDS011;32676;52.630;4.896;2022-11-15T04:42:52;77.55;;;32.50;;
46941;SDS011;32676;52.630;4.896;2022-11-15T04:45:19;94.15;;;37.08;;
46941;SDS011;32676;52.630;4.896;2022-11-15T04:47:45;95.82;;;36.80;;
46941;SDS011;32676;52.630;4.896;2022-11-15T04:50:12;95.82;;;35.28;;
46941;SDS011;32676;52.630;4.896;2022-11-15T04:52:40;89.18;;;35.70;;
46941;SDS011;32676;52.630;4.896;2022-11-15T04:55:08;92.65;;;32.88;;
46941;SDS011;32676;52.630;4.896;2022-11-15T04:57:35;83.97;;;34.63;;
46941;SDS011;32676;52.630;4.896;2022-11-15T05:00:02;88.70;;;36.22;;
46941;SDS011;32676;52.630;4.896;2022-11-15T05:02:29;91.00;;;32.72;;
46941;SDS011;32676;52.630;4.896;2022-11-15T05:05:15;86.03;;;34.30;;
46941;SDS011;32676;52.630;4.896;2022-11-15T05:07:41;71.10;;;32.90;;
46941;SDS011;32676;52.630;4.896;2022-11-15T05:10:09;89.05;;;31.88;;
46941;SDS011;32676;52.630;4.896;2022-11-15T05:12:36;72.55;;;32.55;;
46941;SDS011;32676;52.630;4.896;2022-11-15T05:15:02;76.22;;;34.53;;
46941;SDS011;32676;52.630;4.896;2022-11-15T05:17:30;81.15;;;32.78;;
46941;SDS011;32676;52.630;4.896;2022-11-15T05:19:56;84.40;;;35.28;;
46941;SDS011;32676;52.630;4.896;2022-11-15T05:22:22;76.75;;;32.67;;
46941;SDS011;32676;52.630;4.896;2022-11-15T05:24:49;79.82;;;33.17;;
46941;SDS011;32676;52.630;4.896;2022-11-15T05:27:17;75.40;;;35.72;;
46941;SDS011;32676;52.630;4.896;2022-11-15T05:29:43;80.80;;;33.08;;
46941;SDS011;32676;52.630;4.896;2022-11-15T05:32:09;75.38;;;33.17;;
46941;SDS011;32676;52.630;4.896;2022-11-15T05:34:38;73.22;;;32.60;;
46941;SDS011;32676;52.630;4.896;2022-11-15T05:37:04;63.75;;;32.00;;
46941;SDS011;32676;52.630;4.896;2022-11-15T05:39:31;61.35;;;28.27;;
46941;SDS011;32676;52.630;4.896;2022-11-15T05:41:59;59.45;;;30.10;;
46941;SDS011;32676;52.630;4.896;2022-11-15T05:44:32;55.40;;;28.17;;
46941;SDS011;32676;52.630;4.896;2022-11-15T05:47:00;61.30;;;29.40;;
46941;SDS011;32676;52.630;4.896;2022-11-15T05:49:27;59.05;;;26.85;;
46941;SDS011;32676;52.630;4.896;2022-11-15T05:51:57;62.05;;;29.00;;
46941;SDS011;32676;52.630;4.896;2022-11-15T05:54:24;62.42;;;27.45;;
46941;SDS011;32676;52.630;4.896;2022-11-15T05:56:51;70.47;;;31.33;;
46941;SDS011;32676;52.630;4.896;2022-11-15T05:59:18;56.88;;;27.25;;
46941;SDS011;32676;52.630;4.896;2022-11-15T06:01:47;64.68;;;29.42;;
46941;SDS011;32676;52.630;4.896;2022-11-15T06:04:13;57.05;;;27.02;;
46941;SDS011;32676;52.630;4.896;2022-11-15T06:06:40;56.65;;;27.65;;
46941;SDS011;32676;52.630;4.896;2022-11-15T06:09:06;62.13;;;29.00;;
46941;SDS011;32676;52.630;4.896;2022-11-15T06:11:32;47.15;;;23.40;;
46941;SDS011;32676;52.630;4.896;2022-11-15T06:13:59;55.13;;;26.13;;
46941;SDS011;32676;52.630;4.896;2022-11-15T06:16:25;54.45;;;25.92;;
46941;SDS011;32676;52.630;4.896;2022-11-15T06:18:54;49.70;;;24.85;;
46941;SDS011;32676;52.630;4.896;2022-11-15T06:21:21;44.80;;;24.10;;
46941;SDS011;32676;52.630;4.896;2022-11-15T06:23:47;48.95;;;24.00;;
46941;SDS011;32676;52.630;4.896;2022-11-15T06:26:14;51.80;;;24.42;;
46941;SDS011;32676;52.630;4.896;2022-11-15T06:28:40;49.58;;;23.58;;
46941;SDS011;32676;52.630;4.896;2022-11-15T06:31:07;48.25;;;23.42;;
46941;SDS011;32676;52.630;4.896;2022-11-15T06:33:35;51.92;;;25.05;;
46941;SDS011;32676;52.630;4.896;2022-11-15T06:36:04;46.35;;;22.60;;
46941;SDS011;32676;52.630;4.896;2022-11-15T06:38:32;43.70;;;21.02;;
46941;SDS011;32676;52.630;4.896;2022-11-15T06:41:02;42.45;;;22.50;;
46941;SDS011;32676;52.630;4.896;2022-11-15T06:43:29;37.58;;;21.05;;
46941;SDS011;32676;52.630;4.896;2022-11-15T06:45:57;49.05;;;21.88;;
46941;SDS011;32676;52.630;4.896;2022-11-15T06:48:23;49.80;;;22.10;;
46941;SDS011;32676;52.630;4.896;2022-11-15T06:50:50;47.95;;;20.52;;
46941;SDS011;32676;52.630;4.896;2022-11-15T06:53:19;42.53;;;20.42;;
46941;SDS011;32676;52.630;4.896;2022-11-15T06:55:45;49.22;;;20.85;;
46941;SDS011;32676;52.630;4.896;2022-11-15T06:58:12;39.47;;;20.95;;
46941;SDS011;32676;52.630;4.896;2022-11-15T07:00:38;41.67;;;20.95;;
46941;SDS011;32676;52.630;4.896;2022-11-15T07:03:05;43.72;;;21.90;;
46941;SDS011;32676;52.630;4.896;2022-11-15T07:05:32;41.13;;;19.30;;
46941;SDS011;32676;52.630;4.896;2022-11-15T07:07:59;36.25;;;19.80;;
46941;SDS011;32676;52.630;4.896;2022-11-15T07:10:27;42.38;;;21.08;;
46941;SDS011;32676;52.630;4.896;2022-11-15T07:12:54;32.17;;;18.58;;
46941;SDS011;32676;52.630;4.896;2022-11-15T07:15:22;30.80;;;17.67;;
46941;SDS011;32676;52.630;4.896;2022-11-15T07:17:50;38.95;;;17.23;;
46941;SDS011;32676;52.630;4.896;2022-11-15T07:20:17;40.97;;;18.98;;
46941;SDS011;32676;52.630;4.896;2022-11-15T07:22:44;34.72;;;18.45;;
46941;SDS011;32676;52.630;4.896;2022-11-15T07:25:11;35.92;;;18.05;;
46941;SDS011;32676;52.630;4.896;2022-11-15T07:27:39;31.30;;;16.88;;
46941;SDS011;32676;52.630;4.896;2022-11-15T07:30:06;27.85;;;16.45;;
46941;SDS011;32676;52.630;4.896;2022-11-15T07:32:33;41.90;;;17.75;;
46941;SDS011;32676;52.630;4.896;2022-11-15T07:35:00;31.95;;;16.98;;
46941;SDS011;32676;52.630;4.896;2022-11-15T07:37:26;29.95;;;17.33;;
46941;SDS011;32676;52.630;4.896;2022-11-15T07:39:53;40.05;;;16.25;;
46941;SDS011;32676;52.630;4.896;2022-11-15T07:42:19;26.45;;;15.00;;
46941;SDS011;32676;52.630;4.896;2022-11-15T07:45:05;24.25;;;14.52;;
46941;SDS011;32676;52.630;4.896;2022-11-15T07:47:32;29.23;;;14.05;;
46941;SDS011;32676;52.630;4.896;2022-11-15T07:49:59;30.17;;;15.25;;
46941;SDS011;32676;52.630;4.896;2022-11-15T07:52:26;34.95;;;14.82;;
46941;SDS011;32676;52.630;4.896;2022-11-15T07:54:52;28.38;;;14.15;;
46941;SDS011;32676;52.630;4.896;2022-11-15T07:57:19;25.67;;;12.43;;
46941;SDS011;32676;52.630;4.896;2022-11-15T07:59:45;31.08;;;14.48;;
46941;SDS011;32676;52.630;4.896;2022-11-15T08:02:13;23.65;;;14.63;;
46941;SDS011;32676;52.630;4.896;2022-11-15T08:04:41;30.15;;;14.23;;
46941;SDS011;32676;52.630;4.896;2022-11-15T08:07:08;31.65;;;13.48;;
46941;SDS011;32676;52.630;4.896;2022-11-15T08:09:35;33.70;;;12.85;;
46941;SDS011;32676;52.630;4.896;2022-11-15T08:12:01;37.13;;;13.40;;
46941;SDS011;32676;52.630;4.896;2022-11-15T08:14:28;27.80;;;13.07;;
46941;SDS011;32676;52.630;4.896;2022-11-15T08:16:55;22.40;;;12.25;;
46941;SDS011;32676;52.630;4.896;2022-11-15T08:19:23;29.85;;;12.32;;
46941;SDS011;32676;52.630;4.896;2022-11-15T08:21:50;30.23;;;12.23;;
46941;SDS011;32676;52.630;4.896;2022-11-15T08:24:16;25.27;;;11.52;;
46941;SDS011;32676;52.630;4.896;2022-11-15T08:26:42;22.30;;;12.02;;
46941;SDS011;32676;52.630;4.896;2022-11-15T08:29:09;34.00;;;11.27;;
46941;SDS011;32676;52.630;4.896;2022-11-15T08:31:36;22.55;;;9.45;;
46941;SDS011;32676;52.630;4.896;2022-11-15T08:34:03;19.23;;;9.27;;
46941;SDS011;32676;52.630;4.896;2022-11-15T08:36:31;20.77;;;10.43;;
46941;SDS011;32676;52.630;4.896;2022-11-15T08:38:58;22.73;;;9.95;;
46941;SDS011;32676;52.630;4.896;2022-11-15T08:41:25;19.98;;;7.85;;
46941;SDS011;32676;52.630;4.896;2022-11-15T08:43:54;20.08;;;8.80;;
46941;SDS011;32676;52.630;4.896;2022-11-15T08:46:20;21.25;;;9.98;;
46941;SDS011;32676;52.630;4.896;2022-11-15T08:48:47;25.65;;;8.48;;
46941;SDS011;32676;52.630;4.896;2022-11-15T08:51:13;24.85;;;9.48;;
46941;SDS011;32676;52.630;4.896;2022-11-15T08:53:41;19.50;;;7.82;;
46941;SDS011;32676;52.630;4.896;2022-11-15T08:56:08;15.02;;;8.07;;
46941;SDS011;32676;52.630;4.896;2022-11-15T08:58:35;20.60;;;9.00;;
46941;SDS011;32676;52.630;4.896;2022-11-15T09:01:02;23.70;;;7.97;;
46941;SDS011;32676;52.630;4.896;2022-11-15T09:03:29;14.85;;;6.75;;
46941;SDS011;32676;52.630;4.896;2022-11-15T09:05:55;17.13;;;6.20;;
46941;SDS011;32676;52.630;4.896;2022-11-15T09:08:23;13.27;;;6.72;;
46941;SDS011;32676;52.630;4.896;2022-11-15T09:10:51;15.38;;;5.78;;
46941;SDS011;32676;52.630;4.896;2022-11-15T09:13:17;11.00;;;5.40;;
46941;SDS011;32676;52.630;4.896;2022-11-15T09:15:44;14.23;;;6.40;;
46941;SDS011;32676;52.630;4.896;2022-11-15T09:18:10;16.63;;;7.75;;
46941;SDS011;32676;52.630;4.896;2022-11-15T09:20:37;15.85;;;5.90;;
46941;SDS011;32676;52.630;4.896;2022-11-15T09:23:03;14.45;;;5.78;;
46941;SDS011;32676;52.630;4.896;2022-11-15T09:25:30;17.75;;;7.15;;
46941;SDS011;32676;52.630;4.896;2022-11-15T09:27:59;16.30;;;7.03;;
46941;SDS011;32676;52.630;4.896;2022-11-15T09:30:25;17.92;;;6.22;;
46941;SDS011;32676;52.630;4.896;2022-11-15T09:32:52;13.90;;;7.28;;
46941;SDS011;32676;52.630;4.896;2022-11-15T09:35:18;16.25;;;6.85;;
46941;SDS011;32676;52.630;4.896;2022-11-15T09:37:45;14.73;;;6.30;;
46941;SDS011;32676;52.630;4.896;2022-11-15T09:40:11;14.00;;;5.75;;
46941;SDS011;32676;52.630;4.896;2022-11-15T09:42:53;15.90;;;7.18;;
46941;SDS011;32676;52.630;4.896;2022-11-15T09:45:31;14.60;;;6.97;;
46941;SDS011;32676;52.630;4.896;2022-11-15T09:48:10;11.95;;;5.90;;
46941;SDS011;32676;52.630;4.896;2022-11-15T09:50:47;10.35;;;6.05;;
46941;SDS011;32676;52.630;4.896;2022-11-15T09:53:17;13.57;;;6.45;;
46941;SDS011;32676;52.630;4.896;2022-11-15T09:58:24;13.18;;;4.93;;
46941;SDS011;32676;52.630;4.896;2022-11-15T10:00:57;10.30;;;4.15;;
46941;SDS011;32676;52.630;4.896;2022-11-15T10:03:33;9.88;;;3.65;;
46941;SDS011;32676;52.630;4.896;2022-11-15T10:06:01;10.93;;;3.88;;
46941;SDS011;32676;52.630;4.896;2022-11-15T10:08:46;7.75;;;3.38;;
46941;SDS011;32676;52.630;4.896;2022-11-15T10:11:18;8.23;;;3.72;;
46941;SDS011;32676;52.630;4.896;2022-11-15T10:13:50;8.35;;;3.78;;
46941;SDS011;32676;52.630;4.896;2022-11-15T10:16:35;12.38;;;3.35;;
46941;SDS011;32676;52.630;4.896;2022-11-15T10:19:16;11.77;;;3.40;;
46941;SDS011;32676;52.630;4.896;2022-11-15T10:21:49;13.00;;;3.45;;
46941;SDS011;32676;52.630;4.896;2022-11-15T10:24:23;7.13;;;3.00;;
46941;SDS011;32676;52.630;4.896;2022-11-15T10:26:54;14.45;;;5.18;;
46941;SDS011;32676;52.630;4.896;2022-11-15T10:29:23;7.78;;;3.28;;
46941;SDS011;32676;52.630;4.896;2022-11-15T10:31:51;11.68;;;3.60;;
46941;SDS011;32676;52.630;4.896;2022-11-15T10:34:18;8.45;;;3.92;;
46941;SDS011;32676;52.630;4.896;2022-11-15T10:36:47;9.23;;;4.05;;
46941;SDS011;32676;52.630;4.896;2022-11-15T10:39:21;10.30;;;3.33;;
46941;SDS011;32676;52.630;4.896;2022-11-15T10:41:48;6.03;;;3.75;;
46941;SDS011;32676;52.630;4.896;2022-11-15T10:44:20;10.65;;;3.50;;
46941;SDS011;32676;52.630;4.896;2022-11-15T10:47:16;10.25;;;4.43;;
46941;SDS011;32676;52.630;4.896;2022-11-15T10:50:01;8.75;;;4.00;;
46941;SDS011;32676;52.630;4.896;2022-11-15T10:52:30;9.18;;;3.75;;
46941;SDS011;32676;52.630;4.896;2022-11-15T10:55:00;7.43;;;2.63;;
46941;SDS011;32676;52.630;4.896;2022-11-15T10:57:30;7.53;;;3.33;;
46941;SDS011;32676;52.630;4.896;2022-11-15T11:00:02;10.90;;;2.60;;
46941;SDS011;32676;52.630;4.896;2022-11-15T11:02:31;11.57;;;2.85;;
46941;SDS011;32676;52.630;4.896;2022-11-15T11:05:00;11.75;;;3.38;;
46941;SDS011;32676;52.630;4.896;2022-11-15T11:07:28;6.95;;;2.70;;
46941;SDS011;32676;52.630;4.896;2022-11-15T11:09:57;9.00;;;2.63;;
46941;SDS011;32676;52.630;4.896;2022-11-15T11:12:29;10.85;;;2.83;;
46941;SDS011;32676;52.630;4.896;2022-11-15T11:14:57;13.82;;;2.33;;
46941;SDS011;32676;52.630;4.896;2022-11-15T11:17:30;10.05;;;2.88;;
46941;SDS011;32676;52.630;4.896;2022-11-15T11:20:05;9.35;;;3.08;;
46941;SDS011;32676;52.630;4.896;2022-11-15T11:22:42;12.40;;;3.38;;
46941;SDS011;32676;52.630;4.896;2022-11-15T11:25:25;12.15;;;2.40;;
46941;SDS011;32676;52.630;4.896;2022-11-15T11:28:02;12.45;;;2.17;;
46941;SDS011;32676;52.630;4.896;2022-11-15T11:30:41;15.68;;;3.67;;
46941;SDS011;32676;52.630;4.896;2022-11-15T11:33:17;7.78;;;2.28;;
46941;SDS011;32676;52.630;4.896;2022-11-15T11:35:50;10.68;;;4.35;;
46941;SDS011;32676;52.630;4.896;2022-11-15T11:38:39;17.02;;;4.10;;
46941;SDS011;32676;52.630;4.896;2022-11-15T11:41:20;9.50;;;2.40;;
46941;SDS011;32676;52.630;4.896;2022-11-15T11:43:59;11.73;;;3.63;;
46941;SDS011;32676;52.630;4.896;2022-11-15T11:46:40;7.70;;;2.15;;
46941;SDS011;32676;52.630;4.896;2022-11-15T11:49:17;4.25;;;2.03;;
46941;SDS011;32676;52.630;4.896;2022-11-15T11:51:50;16.95;;;2.47;;
46941;SDS011;32676;52.630;4.896;2022-11-15T11:54:22;17.05;;;2.80;;
46941;SDS011;32676;52.630;4.896;2022-11-15T11:56:55;6.82;;;2.42;;
46941;SDS011;32676;52.630;4.896;2022-11-15T11:59:28;6.10;;;3.22;;
46941;SDS011;32676;52.630;4.896;2022-11-15T12:02:02;5.30;;;1.70;;
46941;SDS011;32676;52.630;4.896;2022-11-15T12:04:40;9.43;;;1.65;;
46941;SDS011;32676;52.630;4.896;2022-11-15T12:07:12;7.93;;;1.77;;
46941;SDS011;32676;52.630;4.896;2022-11-15T12:09:43;6.15;;;2.22;;
46941;SDS011;32676;52.630;4.896;2022-11-15T12:12:15;3.88;;;1.92;;
46941;SDS011;32676;52.630;4.896;2022-11-15T12:14:48;6.82;;;1.55;;
46941;SDS011;32676;52.630;4.896;2022-11-15T12:17:19;7.13;;;1.55;;
46941;SDS011;32676;52.630;4.896;2022-11-15T12:19:50;13.20;;;1.50;;
46941;SDS011;32676;52.630;4.896;2022-11-15T12:22:18;19.08;;;2.45;;
46941;SDS011;32676;52.630;4.896;2022-11-15T12:24:48;8.88;;;2.00;;
46941;SDS011;32676;52.630;4.896;2022-11-15T12:27:31;8.93;;;1.98;;
46941;SDS011;32676;52.630;4.896;2022-11-15T12:30:03;15.90;;;2.67;;
46941;SDS011;32676;52.630;4.896;2022-11-15T12:32:37;2.60;;;0.85;;
46941;SDS011;32676;52.630;4.896;2022-11-15T12:35:20;18.40;;;2.40;;
46941;SDS011;32676;52.630;4.896;2022-11-15T12:37:54;7.38;;;1.20;;
46941;SDS011;32676;52.630;4.896;2022-11-15T12:40:25;5.57;;;1.40;;
46941;SDS011;32676;52.630;4.896;2022-11-15T12:42:58;2.35;;;0.70;;
46941;SDS011;32676;52.630;4.896;2022-11-15T12:45:28;5.90;;;1.30;;
46941;SDS011;32676;52.630;4.896;2022-11-15T12:48:21;8.27;;;1.20;;
46941;SDS011;32676;52.630;4.896;2022-11-15T12:51:05;9.63;;;1.67;;
46941;SDS011;32676;52.630;4.896;2022-11-15T12:53:32;6.47;;;1.90;;
46941;SDS011;32676;52.630;4.896;2022-11-15T12:56:17;7.10;;;1.42;;
46941;SDS011;32676;52.630;4.896;2022-11-15T12:58:47;9.18;;;1.67;;
46941;SDS011;32676;52.630;4.896;2022-11-15T13:04:22;7.20;;;1.58;;
46941;SDS011;32676;52.630;4.896;2022-11-15T13:06:53;11.25;;;1.67;;
46941;SDS011;32676;52.630;4.896;2022-11-15T13:12:49;4.80;;;0.80;;
46941;SDS011;32676;52.630;4.896;2022-11-15T13:20:53;8.43;;;0.95;;
46941;SDS011;32676;52.630;4.896;2022-11-15T13:23:21;8.50;;;1.02;;
46941;SDS011;32676;52.630;4.896;2022-11-15T13:25:54;5.47;;;0.80;;
46941;SDS011;32676;52.630;4.896;2022-11-15T13:28:37;4.47;;;0.85;;
46941;SDS011;32676;52.630;4.896;2022-11-15T13:31:18;9.30;;;1.02;;
46941;SDS011;32676;52.630;4.896;2022-11-15T13:33:49;3.20;;;1.02;;
46941;SDS011;32676;52.630;4.896;2022-11-15T13:36:18;18.42;;;1.35;;
46941;SDS011;32676;52.630;4.896;2022-11-15T13:38:55;8.18;;;2.20;;
46941;SDS011;32676;52.630;4.896;2022-11-15T13:41:24;9.40;;;0.95;;
46941;SDS011;32676;52.630;4.896;2022-11-15T13:43:52;5.65;;;0.73;;
46941;SDS011;32676;52.630;4.896;2022-11-15T13:46:20;12.10;;;1.08;;
46941;SDS011;32676;52.630;4.896;2022-11-15T13:48:51;7.57;;;1.02;;
46941;SDS011;32676;52.630;4.896;2022-11-15T13:51:20;4.57;;;0.88;;
46941;SDS011;32676;52.630;4.896;2022-11-15T13:53:53;6.47;;;0.60;;
46941;SDS011;32676;52.630;4.896;2022-11-15T13:56:23;5.07;;;0.88;;
46941;SDS011;32676;52.630;4.896;2022-11-15T13:58:52;4.97;;;0.80;;
46941;SDS011;32676;52.630;4.896;2022-11-15T14:01:19;7.70;;;1.13;;
46941;SDS011;32676;52.630;4.896;2022-11-15T14:03:49;6.18;;;0.75;;
46941;SDS011;32676;52.630;4.896;2022-11-15T14:06:19;6.40;;;1.02;;
46941;SDS011;32676;52.630;4.896;2022-11-15T14:09:03;11.07;;;1.48;;
46941;SDS011;32676;52.630;4.896;2022-11-15T14:11:49;7.57;;;0.83;;
46941;SDS011;32676;52.630;4.896;2022-11-15T14:14:17;12.65;;;3.20;;
46941;SDS011;32676;52.630;4.896;2022-11-15T14:16:48;17.15;;;1.35;;
46941;SDS011;32676;52.630;4.896;2022-11-15T14:22:13;3.75;;;0.40;;
46941;SDS011;32676;52.630;4.896;2022-11-15T14:24:44;4.50;;;0.82;;
46941;SDS011;32676;52.630;4.896;2022-11-15T14:29:58;4.55;;;1.30;;
46941;SDS011;32676;52.630;4.896;2022-11-15T14:32:26;7.38;;;0.80;;
46941;SDS011;32676;52.630;4.896;2022-11-15T14:34:55;6.47;;;0.93;;
46941;SDS011;32676;52.630;4.896;2022-11-15T14:37:23;8.55;;;1.38;;
46941;SDS011;32676;52.630;4.896;2022-11-15T14:39:52;8.07;;;1.00;;
46941;SDS011;32676;52.630;4.896;2022-11-15T14:42:20;2.20;;;0.93;;
46941;SDS011;32676;52.630;4.896;2022-11-15T14:44:48;14.30;;;2.47;;
46941;SDS011;32676;52.630;4.896;2022-11-15T14:47:14;9.25;;;0.55;;
46941;SDS011;32676;52.630;4.896;2022-11-15T14:49:41;4.70;;;1.10;;
46941;SDS011;32676;52.630;4.896;2022-11-15T14:52:16;9.30;;;0.90;;
46941;SDS011;32676;52.630;4.896;2022-11-15T14:54:50;4.13;;;0.77;;
46941;SDS011;32676;52.630;4.896;2022-11-15T14:57:18;8.52;;;2.22;;
46941;SDS011;32676;52.630;4.896;2022-11-15T14:59:45;12.73;;;0.80;;
46941;SDS011;32676;52.630;4.896;2022-11-15T15:02:14;2.78;;;0.68;;
46941;SDS011;32676;52.630;4.896;2022-11-15T15:04:42;10.85;;;2.28;;
46941;SDS011;32676;52.630;4.896;2022-11-15T15:07:09;8.05;;;1.27;;
46941;SDS011;32676;52.630;4.896;2022-11-15T15:09:35;5.57;;;1.17;;
46941;SDS011;32676;52.630;4.896;2022-11-15T15:12:02;3.75;;;1.08;;